| time (UTC) | temp F | wind direction | speed MPH | gust MPH | rain 1hr in | rain 24hr in | rain mn in | humidity % | barometer mb |
| 20260905184440 | 101 | 136 | 0.0 | 0.0 | 0.00 | 0.00 | 0.00 | 57 | 1013.6 |
| 20260905183939 | 101 | 173 | 1.0 | 1.0 | 0.00 | 0.00 | 0.00 | 57 | 1013.4 |
| 20260905183433 | 102 | 284 | 2.0 | 3.0 | 0.00 | 0.00 | 0.00 | 55 | 1013.4 |
| 20260905182929 | 102 | 234 | 0.0 | 1.0 | 0.00 | 0.00 | 0.00 | 57 | 1013.5 |
| 20260905182427 | 101 | 221 | 2.0 | 2.0 | 0.00 | 0.00 | 0.00 | 56 | 1013.5 |
| 20260905181923 | 101 | 243 | 2.0 | 2.0 | 0.00 | 0.00 | 0.00 | 57 | 1013.7 |
| 20260905181418 | 101 | 201 | 1.0 | 2.0 | 0.00 | 0.00 | 0.00 | 55 | 1013.6 |
| 20260905180917 | 100 | 262 | 2.0 | 2.0 | 0.00 | 0.00 | 0.00 | 58 | 1013.8 |
| 20260905180412 | 98 | 328 | 1.0 | 1.0 | 0.00 | 0.00 | 0.00 | 64 | 1013.9 |
| 20260905175907 | 99 | 251 | 3.0 | 3.0 | 0.00 | 0.00 | 0.00 | 59 | 1013.6 |
| 20260905175406 | 100 | 238 | 2.0 | 2.0 | 0.00 | 0.00 | 0.00 | 58 | 1013.9 |
| 20260905174901 | 98 | 308 | 1.0 | 1.0 | 0.00 | 0.00 | 0.00 | 60 | 1014.1 |
| 20260905174357 | 100 | 311 | 2.0 | 3.0 | 0.00 | 0.00 | 0.00 | 62 | 1014.0 |
| 20260905173852 | 97 | 224 | 1.0 | 1.0 | 0.00 | 0.00 | 0.00 | 65 | 1014.0 |
| 20260905173348 | 97 | 335 | 0.0 | 0.0 | 0.00 | 0.00 | 0.00 | 65 | 1014.3 |
| 20260905172843 | 98 | 28 | 1.0 | 2.0 | 0.00 | 0.00 | 0.00 | 65 | 1014.3 |
| 20260905172341 | 99 | 295 | 1.0 | 2.0 | 0.00 | 0.00 | 0.00 | 60 | 1014.4 |
| 20260905171838 | 98 | 268 | 1.0 | 2.0 | 0.00 | 0.00 | 0.00 | 66 | 1014.3 |
| 20260905171334 | 97 | 321 | 0.0 | 0.0 | 0.00 | 0.00 | 0.00 | 68 | 1014.2 |
| 20260905170830 | 97 | 286 | 1.0 | 2.0 | 0.00 | 0.00 | 0.00 | 67 | 1014.7 |
| 20260905170326 | 96 | 243 | 1.0 | 1.0 | 0.00 | 0.00 | 0.00 | 69 | 1014.6 |
| 20260905165825 | 98 | 298 | 2.0 | 2.0 | 0.00 | 0.00 | 0.00 | 66 | 1014.6 |
| 20260905165321 | 98 | 300 | 3.0 | 3.0 | 0.00 | 0.00 | 0.00 | 67 | 1014.5 |
| 20260905164820 | 98 | 294 | 1.0 | 1.0 | 0.00 | 0.00 | 0.00 | 68 | 1014.7 |
| 20260905164315 | 97 | 244 | 3.0 | 3.0 | 0.00 | 0.00 | 0.00 | 67 | 1014.7 |
| 20260905163811 | 98 | 200 | 2.0 | 2.0 | 0.00 | 0.00 | 0.00 | 67 | 1014.9 |
| 20260905163307 | 97 | 319 | 2.0 | 2.0 | 0.00 | 0.00 | 0.00 | 66 | 1014.9 |
| 20260905162803 | 96 | 227 | 3.0 | 3.0 | 0.00 | 0.00 | 0.00 | 68 | 1015.0 |
| 20260905162305 | 97 | 213 | 4.0 | 5.0 | 0.00 | 0.00 | 0.00 | 70 | 1015.2 |
| 20260905161757 | 97 | 234 | 3.0 | 3.0 | 0.00 | 0.00 | 0.00 | 66 | 1015.1 |
| 20260905161256 | 98 | 292 | 2.0 | 3.0 | 0.00 | 0.00 | 0.00 | 68 | 1015.3 |
| 20260905160755 | 97 | 288 | 0.0 | 0.0 | 0.00 | 0.00 | 0.00 | 67 | 1015.2 |
| 20260905160255 | 98 | 236 | 1.0 | 1.0 | 0.00 | 0.00 | 0.00 | 67 | 1015.4 |
| 20260905155749 | 97 | 308 | 1.0 | 1.0 | 0.00 | 0.00 | 0.00 | 68 | 1015.7 |
| 20260905155243 | 95 | 211 | 2.0 | 3.0 | 0.00 | 0.00 | 0.00 | 67 | 1015.6 |
| 20260905154737 | 95 | 226 | 3.0 | 3.0 | 0.00 | 0.00 | 0.00 | 70 | 1015.6 |
| 20260905154233 | 96 | 243 | 3.0 | 6.0 | 0.00 | 0.00 | 0.00 | 73 | 1015.5 |
| 20260905153728 | 97 | 268 | 2.0 | 2.0 | 0.00 | 0.00 | 0.00 | 71 | 1015.7 |
| 20260905153224 | 96 | 242 | 2.0 | 3.0 | 0.00 | 0.00 | 0.00 | 72 | 1015.8 |
| 20260905152719 | 95 | 296 | 2.0 | 3.0 | 0.00 | 0.00 | 0.00 | 74 | 1015.5 |
| 20260905152213 | 95 | 312 | 1.0 | 1.0 | 0.00 | 0.00 | 0.00 | 77 | 1015.9 |
| 20260905151713 | 95 | 272 | 1.0 | 2.0 | 0.00 | 0.00 | 0.00 | 77 | 1015.9 |
| 20260905151209 | 95 | 144 | 5.0 | 6.0 | 0.00 | 0.00 | 0.00 | 76 | 1015.7 |
| 20260905150703 | 93 | 325 | 0.0 | 0.0 | 0.00 | 0.00 | 0.00 | 80 | 1015.8 |
| 20260905150202 | 93 | 225 | 2.0 | 2.0 | 0.00 | 0.00 | 0.00 | 79 | 1015.7 |
| 20260905145700 | 93 | 186 | 3.0 | 6.0 | 0.00 | 0.00 | 0.00 | 80 | 1016.1 |
| 20260905145155 | 93 | 352 | 0.0 | 0.0 | 0.00 | 0.00 | 0.00 | 79 | 1016.1 |
| 20260905144654 | 92 | 286 | 1.0 | 2.0 | 0.00 | 0.00 | 0.00 | 81 | 1016.1 |
| 20260905144149 | 92 | 296 | 2.0 | 2.0 | 0.00 | 0.00 | 0.00 | 82 | 1016.0 |
| 20260905143648 | 92 | 254 | 0.0 | 0.0 | 0.00 | 0.00 | 0.00 | 83 | 1015.7 |
| 20260905143143 | 92 | 244 | 4.0 | 6.0 | 0.00 | 0.00 | 0.00 | 82 | 1015.8 |
| 20260905142641 | 91 | 298 | 2.0 | 3.0 | 0.00 | 0.00 | 0.00 | 84 | 1016.1 |
| 20260905142136 | 92 | 175 | 3.0 | 5.0 | 0.00 | 0.00 | 0.00 | 82 | 1016.0 |
| 20260905141636 | 91 | 178 | 1.0 | 1.0 | 0.00 | 0.00 | 0.00 | 84 | 1015.9 |
| 20260905141133 | 90 | 211 | 1.0 | 2.0 | 0.00 | 0.00 | 0.00 | 85 | 1016.1 |
| 20260905140628 | 90 | 248 | 3.0 | 3.0 | 0.00 | 0.00 | 0.00 | 85 | 1015.9 |
| 20260905140127 | 89 | 279 | 2.0 | 2.0 | 0.00 | 0.00 | 0.00 | 88 | 1015.8 |
| 20260905135622 | 89 | 210 | 2.0 | 3.0 | 0.00 | 0.00 | 0.00 | 88 | 1016.0 |
| 20260905135118 | 89 | 219 | 0.0 | 0.0 | 0.00 | 0.00 | 0.00 | 89 | 1015.9 |
| 20260905134612 | 89 | 264 | 2.0 | 3.0 | 0.00 | 0.00 | 0.00 | 88 | 1015.8 |
| 20260905134111 | 89 | 178 | 0.0 | 1.0 | 0.00 | 0.00 | 0.00 | 91 | 1015.9 |
| 20260905133607 | 88 | 199 | 1.0 | 1.0 | 0.00 | 0.00 | 0.00 | 92 | 1015.9 |
| 20260905133107 | 87 | 281 | 1.0 | 2.0 | 0.00 | 0.00 | 0.00 | 93 | 1015.9 |
| 20260905132606 | 85 | 287 | 0.0 | 1.0 | 0.00 | 0.00 | 0.00 | 98 | 1015.8 |
| 20260905132101 | 84 | 208 | 0.0 | 0.0 | 0.00 | 0.00 | 0.00 | 99 | 1015.8 |
| 20260905131556 | 84 | 259 | 1.0 | 1.0 | 0.00 | 0.00 | 0.00 | 99 | 1015.7 |
| 20260905131052 | 84 | 305 | 0.0 | 0.0 | 0.00 | 0.00 | 0.00 | 99 | 1015.8 |
| 20260905130550 | 83 | 325 | 0.0 | 1.0 | 0.00 | 0.00 | 0.00 | 99 | 1015.6 |
| 20260905130046 | 83 | 273 | 0.0 | 0.0 | 0.00 | 0.00 | 0.00 | 99 | 1015.7 |
| 20260905125545 | 83 | 299 | 0.0 | 0.0 | 0.00 | 0.00 | 0.00 | 99 | 1015.7 |
| 20260905125041 | 82 | 283 | 0.0 | 0.0 | 0.00 | 0.00 | 0.00 | 99 | 1016.1 |
| 20260905124537 | 82 | 278 | 0.0 | 1.0 | 0.00 | 0.00 | 0.00 | 99 | 1015.9 |
| 20260905124033 | 82 | 208 | 0.0 | 1.0 | 0.00 | 0.00 | 0.00 | 99 | 1016.0 |
| 20260905123528 | 83 | 260 | 0.0 | 0.0 | 0.00 | 0.00 | 0.00 | 99 | 1015.7 |
| 20260905123025 | 82 | 260 | 0.0 | 0.0 | 0.00 | 0.00 | 0.00 | 99 | 1015.7 |
| 20260905122519 | 81 | 259 | 0.0 | 0.0 | 0.00 | 0.00 | 0.00 | 99 | 1015.8 |
| 20260905122015 | 80 | 260 | 0.0 | 0.0 | 0.00 | 0.00 | 0.00 | 99 | 1015.8 |
| 20260905121515 | 80 | 260 | 0.0 | 0.0 | 0.00 | 0.00 | 0.00 | 99 | 1015.9 |
| 20260905121009 | 79 | 260 | 0.0 | 0.0 | 0.00 | 0.00 | 0.00 | 99 | 1015.7 |
| 20260905120509 | 79 | 260 | 0.0 | 0.0 | 0.00 | 0.00 | 0.00 | 99 | 1015.8 |
| 20260905120004 | 79 | 238 | 0.0 | 0.0 | 0.00 | 0.00 | 0.00 | 99 | 1015.6 |
| 20260905115503 | 79 | 238 | 0.0 | 0.0 | 0.00 | 0.00 | 0.00 | 99 | 1015.5 |
| 20260905114958 | 79 | 238 | 0.0 | 0.0 | 0.00 | 0.00 | 0.00 | 99 | 1015.5 |
| 20260905114458 | 79 | 238 | 0.0 | 0.0 | 0.00 | 0.00 | 0.00 | 99 | 1015.4 |
| 20260905113956 | 79 | 238 | 0.0 | 0.0 | 0.00 | 0.00 | 0.00 | 99 | 1015.5 |
| 20260905113452 | 79 | 236 | 0.0 | 0.0 | 0.00 | 0.00 | 0.00 | 99 | 1015.4 |
| 20260905112947 | 79 | 237 | 0.0 | 0.0 | 0.00 | 0.00 | 0.00 | 99 | 1015.4 |
| 20260905112442 | 79 | 237 | 0.0 | 0.0 | 0.00 | 0.00 | 0.00 | 99 | 1015.1 |
| 20260905111938 | 79 | 237 | 0.0 | 0.0 | 0.00 | 0.00 | 0.00 | 99 | 1015.1 |
| 20260905111438 | 78 | 237 | 0.0 | 0.0 | 0.00 | 0.00 | 0.00 | 99 | 1015.1 |
| 20260905110932 | 78 | 237 | 0.0 | 0.0 | 0.00 | 0.00 | 0.00 | 99 | 1014.9 |
| 20260905110425 | 78 | 237 | 0.0 | 0.0 | 0.00 | 0.00 | 0.00 | 99 | 1015.2 |
| 20260905105920 | 78 | 237 | 0.0 | 0.0 | 0.00 | 0.00 | 0.00 | 99 | 1014.9 |
| 20260905105420 | 78 | 237 | 0.0 | 0.0 | 0.00 | 0.00 | 0.00 | 99 | 1014.8 |
| 20260905104919 | 78 | 237 | 0.0 | 0.0 | 0.00 | 0.00 | 0.00 | 99 | 1014.8 |
| 20260905104416 | 78 | 237 | 0.0 | 0.0 | 0.00 | 0.00 | 0.00 | 99 | 1014.9 |
| 20260905103910 | 78 | 237 | 0.0 | 0.0 | 0.00 | 0.00 | 0.00 | 99 | 1014.6 |
| 20260905103405 | 78 | 237 | 0.0 | 0.0 | 0.00 | 0.00 | 0.00 | 99 | 1014.6 |
| 20260905102901 | 79 | 237 | 0.0 | 0.0 | 0.00 | 0.00 | 0.00 | 99 | 1014.7 |
| 20260905102357 | 78 | 237 | 0.0 | 0.0 | 0.00 | 0.00 | 0.00 | 99 | 1014.7 |
| 20260905101852 | 78 | 237 | 0.0 | 0.0 | 0.00 | 0.00 | 0.00 | 99 | 1014.8 |
| 20260905101350 | 78 | 237 | 0.0 | 0.0 | 0.00 | 0.00 | 0.00 | 99 | 1014.9 |
| 20260905100845 | 78 | 237 | 0.0 | 0.0 | 0.00 | 0.00 | 0.00 | 99 | 1014.8 |
| 20260905100342 | 78 | 237 | 0.0 | 0.0 | 0.00 | 0.00 | 0.00 | 99 | 1015.0 |
| 20260905095840 | 79 | 237 | 0.0 | 0.0 | 0.00 | 0.00 | 0.00 | 99 | 1015.0 |
| 20260905095335 | 78 | 237 | 0.0 | 0.0 | 0.00 | 0.00 | 0.00 | 99 | 1014.7 |
| 20260905094829 | 78 | 237 | 0.0 | 0.0 | 0.00 | 0.00 | 0.00 | 99 | 1014.8 |
| 20260905094325 | 78 | 237 | 0.0 | 0.0 | 0.00 | 0.00 | 0.00 | 99 | 1014.9 |
| 20260905093824 | 78 | 237 | 0.0 | 0.0 | 0.00 | 0.00 | 0.00 | 99 | 1015.0 |
| 20260905093320 | 78 | 237 | 0.0 | 0.0 | 0.00 | 0.00 | 0.00 | 99 | 1014.7 |
| 20260905092816 | 78 | 237 | 0.0 | 0.0 | 0.00 | 0.00 | 0.00 | 99 | 1014.7 |
| 20260905092315 | 78 | 237 | 0.0 | 0.0 | 0.00 | 0.00 | 0.00 | 99 | 1014.9 |
| 20260905091805 | 78 | 237 | 0.0 | 0.0 | 0.00 | 0.00 | 0.00 | 99 | 1014.6 |
| 20260905091304 | 79 | 237 | 0.0 | 0.0 | 0.00 | 0.00 | 0.00 | 99 | 1014.7 |
| 20260905090803 | 79 | 237 | 0.0 | 0.0 | 0.00 | 0.00 | 0.00 | 99 | 1014.6 |
| 20260905090259 | 79 | 237 | 0.0 | 0.0 | 0.00 | 0.00 | 0.00 | 99 | 1014.7 |
| 20260905085759 | 79 | 237 | 0.0 | 0.0 | 0.00 | 0.00 | 0.00 | 99 | 1014.7 |
| 20260905085258 | 78 | 237 | 0.0 | 0.0 | 0.00 | 0.00 | 0.00 | 99 | 1014.8 |
| 20260905084753 | 79 | 237 | 0.0 | 0.0 | 0.00 | 0.00 | 0.00 | 99 | 1014.8 |
| 20260905084248 | 79 | 237 | 0.0 | 0.0 | 0.00 | 0.00 | 0.00 | 99 | 1014.6 |
| 20260905083742 | 78 | 236 | 0.0 | 0.0 | 0.00 | 0.00 | 0.00 | 99 | 1014.7 |
| 20260905083238 | 79 | 237 | 0.0 | 0.0 | 0.00 | 0.00 | 0.00 | 99 | 1014.9 |
| 20260905082734 | 79 | 236 | 0.0 | 0.0 | 0.00 | 0.00 | 0.00 | 99 | 1014.8 |
| 20260905082230 | 79 | 237 | 0.0 | 0.0 | 0.00 | 0.00 | 0.00 | 99 | 1014.8 |
| 20260905081729 | 79 | 237 | 0.0 | 0.0 | 0.00 | 0.00 | 0.00 | 99 | 1014.5 |
| 20260905081224 | 79 | 236 | 0.0 | 0.0 | 0.00 | 0.00 | 0.00 | 99 | 1014.6 |
| 20260905080719 | 79 | 236 | 0.0 | 0.0 | 0.00 | 0.00 | 0.00 | 99 | 1014.7 |
| 20260905080219 | 79 | 236 | 0.0 | 0.0 | 0.00 | 0.00 | 0.00 | 99 | 1014.5 |
| 20260905075718 | 79 | 236 | 0.0 | 0.0 | 0.00 | 0.00 | 0.00 | 99 | 1014.8 |
| 20260905075217 | 79 | 236 | 0.0 | 0.0 | 0.00 | 0.00 | 0.00 | 99 | 1014.9 |
| 20260905074716 | 79 | 236 | 0.0 | 0.0 | 0.00 | 0.00 | 0.00 | 99 | 1014.9 |
| 20260905074212 | 79 | 236 | 0.0 | 0.0 | 0.00 | 0.00 | 0.00 | 99 | 1014.6 |
| 20260905073708 | 79 | 236 | 0.0 | 0.0 | 0.00 | 0.00 | 0.00 | 99 | 1014.8 |
| 20260905073203 | 79 | 236 | 0.0 | 0.0 | 0.00 | 0.00 | 0.00 | 99 | 1014.8 |
| 20260905072702 | 79 | 236 | 0.0 | 0.0 | 0.00 | 0.00 | 0.00 | 99 | 1014.8 |
| 20260905072158 | 79 | 236 | 0.0 | 0.0 | 0.00 | 0.00 | 0.00 | 99 | 1014.8 |
| 20260905071654 | 79 | 236 | 0.0 | 0.0 | 0.00 | 0.00 | 0.00 | 99 | 1014.6 |
| 20260905071150 | 79 | 236 | 0.0 | 0.0 | 0.00 | 0.00 | 0.00 | 99 | 1014.5 |
| 20260905070644 | 79 | 236 | 0.0 | 0.0 | 0.00 | 0.00 | 0.00 | 99 | 1014.8 |
| 20260905070141 | 79 | 238 | 0.0 | 0.0 | 0.00 | 0.00 | 0.00 | 99 | 1014.8 |
| 20260905065639 | 79 | 238 | 0.0 | 0.0 | 0.00 | 0.00 | 0.00 | 99 | 1014.8 |
| 20260905065133 | 80 | 238 | 0.0 | 0.0 | 0.00 | 0.00 | 0.00 | 99 | 1015.0 |
| 20260905064629 | 79 | 233 | 0.0 | 0.0 | 0.00 | 0.00 | 0.00 | 99 | 1014.9 |
| 20260905064124 | 79 | 230 | 0.0 | 0.0 | 0.00 | 0.00 | 0.00 | 99 | 1015.0 |
| 20260905063622 | 80 | 237 | 0.0 | 0.0 | 0.00 | 0.00 | 0.00 | 99 | 1015.1 |
| 20260905063119 | 80 | 236 | 0.0 | 0.0 | 0.00 | 0.00 | 0.00 | 99 | 1015.1 |
| 20260905062615 | 80 | 238 | 0.0 | 0.0 | 0.00 | 0.00 | 0.00 | 99 | 1015.0 |
| 20260905062114 | 80 | 238 | 0.0 | 0.0 | 0.00 | 0.00 | 0.00 | 99 | 1015.1 |
| 20260905061608 | 80 | 238 | 0.0 | 0.0 | 0.00 | 0.00 | 0.00 | 99 | 1015.2 |
| 20260905061103 | 80 | 238 | 0.0 | 0.0 | 0.00 | 0.00 | 0.00 | 99 | 1015.5 |
| 20260905060559 | 80 | 238 | 0.0 | 0.0 | 0.00 | 0.00 | 0.00 | 99 | 1015.5 |
| 20260905060054 | 80 | 236 | 0.0 | 0.0 | 0.00 | 0.00 | 0.00 | 99 | 1015.3 |
| 20260905055553 | 80 | 236 | 0.0 | 0.0 | 0.00 | 0.00 | 0.00 | 99 | 1015.5 |
| 20260905055048 | 80 | 238 | 0.0 | 0.0 | 0.00 | 0.00 | 0.00 | 99 | 1015.6 |
| 20260905054544 | 80 | 238 | 0.0 | 0.0 | 0.00 | 0.00 | 0.00 | 99 | 1015.5 |
| 20260905054039 | 80 | 238 | 0.0 | 0.0 | 0.00 | 0.00 | 0.00 | 99 | 1015.9 |
| 20260905053538 | 80 | 238 | 0.0 | 0.0 | 0.00 | 0.00 | 0.00 | 99 | 1015.8 |
| 20260905053034 | 80 | 196 | 0.0 | 0.0 | 0.00 | 0.00 | 0.00 | 99 | 1015.9 |
| 20260905052533 | 80 | 238 | 0.0 | 0.0 | 0.00 | 0.00 | 0.00 | 99 | 1016.0 |
| 20260905052028 | 80 | 238 | 0.0 | 0.0 | 0.00 | 0.00 | 0.00 | 99 | 1015.9 |
| 20260905051524 | 80 | 238 | 0.0 | 0.0 | 0.00 | 0.00 | 0.00 | 99 | 1016.3 |
| 20260905051021 | 80 | 238 | 0.0 | 0.0 | 0.00 | 0.00 | 0.00 | 99 | 1016.3 |
| 20260905050516 | 80 | 238 | 0.0 | 0.0 | 0.00 | 0.00 | 0.00 | 99 | 1016.1 |
| 20260905050013 | 80 | 238 | 0.0 | 0.0 | 0.00 | 0.00 | 0.00 | 99 | 1016.2 |
| 20260905045507 | 80 | 238 | 0.0 | 0.0 | 0.00 | 0.00 | 0.00 | 99 | 1016.3 |
| 20260905045002 | 80 | 271 | 0.0 | 0.0 | 0.00 | 0.00 | 0.00 | 99 | 1016.3 |
| 20260905044457 | 80 | 271 | 0.0 | 0.0 | 0.00 | 0.00 | 0.00 | 99 | 1016.5 |
| 20260905043957 | 80 | 271 | 0.0 | 0.0 | 0.00 | 0.00 | 0.00 | 99 | 1016.5 |
| 20260905043456 | 81 | 271 | 0.0 | 0.0 | 0.00 | 0.00 | 0.00 | 99 | 1016.2 |
| 20260905042951 | 81 | 271 | 0.0 | 0.0 | 0.00 | 0.00 | 0.00 | 99 | 1016.4 |
| 20260905042450 | 81 | 271 | 0.0 | 0.0 | 0.00 | 0.00 | 0.00 | 99 | 1016.5 |
| 20260905041946 | 81 | 271 | 0.0 | 0.0 | 0.00 | 0.00 | 0.00 | 99 | 1016.5 |
| 20260905041442 | 81 | 270 | 0.0 | 0.0 | 0.00 | 0.00 | 0.00 | 99 | 1016.6 |
| 20260905040936 | 81 | 270 | 0.0 | 0.0 | 0.00 | 0.00 | 0.00 | 99 | 1016.5 |
| 20260905040436 | 81 | 270 | 0.0 | 0.0 | 0.00 | 0.00 | 0.00 | 99 | 1016.4 |
| 20260905035935 | 81 | 270 | 0.0 | 0.0 | 0.00 | 0.05 | 0.05 | 99 | 1016.5 |
| 20260905035431 | 81 | 268 | 0.0 | 0.0 | 0.00 | 0.05 | 0.05 | 99 | 1016.6 |
| 20260905034928 | 81 | 268 | 0.0 | 0.0 | 0.00 | 0.05 | 0.05 | 99 | 1016.7 |
| 20260905034423 | 81 | 268 | 0.0 | 0.0 | 0.00 | 0.05 | 0.05 | 99 | 1016.3 |
| 20260905033922 | 81 | 268 | 0.0 | 0.0 | 0.00 | 0.05 | 0.05 | 99 | 1016.6 |
| 20260905033417 | 81 | 268 | 0.0 | 0.0 | 0.00 | 0.05 | 0.05 | 99 | 1016.5 |
| 20260905032916 | 81 | 268 | 0.0 | 0.0 | 0.00 | 0.05 | 0.05 | 99 | 1016.6 |
| 20260905032412 | 81 | 268 | 0.0 | 0.0 | 0.00 | 0.05 | 0.05 | 99 | 1016.4 |
| 20260905031906 | 81 | 268 | 0.0 | 0.0 | 0.00 | 0.05 | 0.05 | 99 | 1016.3 |
| 20260905031357 | 81 | 268 | 0.0 | 0.0 | 0.00 | 0.05 | 0.05 | 99 | 1016.4 |
| 20260905030852 | 81 | 268 | 0.0 | 0.0 | 0.00 | 0.05 | 0.05 | 99 | 1016.6 |
| 20260905030348 | 81 | 268 | 0.0 | 0.0 | 0.00 | 0.05 | 0.05 | 99 | 1016.5 |
| 20260905025846 | 81 | 268 | 0.0 | 0.0 | 0.00 | 0.05 | 0.05 | 99 | 1016.4 |
| 20260905025342 | 81 | 268 | 0.0 | 0.0 | 0.00 | 0.05 | 0.05 | 99 | 1016.4 |
| 20260905024839 | 81 | 268 | 0.0 | 0.0 | 0.00 | 0.05 | 0.05 | 99 | 1016.3 |
| 20260905024333 | 81 | 268 | 0.0 | 0.0 | 0.00 | 0.05 | 0.05 | 99 | 1016.3 |
| 20260905023828 | 81 | 268 | 0.0 | 0.0 | 0.00 | 0.05 | 0.05 | 99 | 1016.2 |
| 20260905023324 | 81 | 268 | 0.0 | 0.0 | 0.00 | 0.05 | 0.05 | 99 | 1016.2 |
| 20260905022823 | 81 | 268 | 0.0 | 0.0 | 0.00 | 0.05 | 0.05 | 99 | 1016.3 |
| 20260905022318 | 81 | 268 | 0.0 | 0.0 | 0.00 | 0.05 | 0.05 | 99 | 1016.3 |
| 20260905021818 | 81 | 268 | 0.0 | 0.0 | 0.00 | 0.05 | 0.05 | 99 | 1016.2 |
| 20260905021313 | 81 | 268 | 0.0 | 0.0 | 0.00 | 0.05 | 0.05 | 99 | 1016.3 |
| 20260905020808 | 81 | 264 | 0.0 | 0.0 | 0.00 | 0.05 | 0.05 | 99 | 1016.1 |
| 20260905020303 | 81 | 264 | 0.0 | 0.0 | 0.00 | 0.05 | 0.05 | 99 | 1016.1 |
| 20260905015802 | 81 | 264 | 0.0 | 0.0 | 0.00 | 0.05 | 0.05 | 99 | 1016.2 |
| 20260905015256 | 81 | 264 | 0.0 | 0.0 | 0.00 | 0.05 | 0.05 | 99 | 1016.0 |
| 20260905014755 | 81 | 264 | 0.0 | 0.0 | 0.00 | 0.05 | 0.05 | 99 | 1016.1 |
| 20260905014251 | 81 | 264 | 0.0 | 0.0 | 0.00 | 0.05 | 0.05 | 99 | 1016.0 |
| 20260905013746 | 81 | 264 | 0.0 | 0.0 | 0.00 | 0.05 | 0.05 | 99 | 1016.3 |
| 20260905013242 | 81 | 264 | 0.0 | 0.0 | 0.00 | 0.05 | 0.05 | 99 | 1016.1 |
| 20260905012737 | 81 | 264 | 0.0 | 0.0 | 0.00 | 0.05 | 0.05 | 99 | 1016.4 |
| 20260905012233 | 81 | 262 | 0.0 | 0.0 | 0.00 | 0.05 | 0.05 | 99 | 1016.3 |
| 20260905011730 | 81 | 273 | 0.0 | 0.0 | 0.00 | 0.05 | 0.05 | 99 | 1016.4 |
| 20260905011226 | 81 | 276 | 0.0 | 0.0 | 0.00 | 0.05 | 0.05 | 99 | 1016.2 |
| 20260905010725 | 81 | 276 | 0.0 | 0.0 | 0.00 | 0.05 | 0.05 | 99 | 1016.1 |
| 20260905010221 | 81 | 276 | 0.0 | 0.0 | 0.00 | 0.05 | 0.05 | 99 | 1016.1 |
| 20260905005718 | 80 | 276 | 0.0 | 0.0 | 0.00 | 0.05 | 0.05 | 99 | 1016.2 |
| 20260905005213 | 80 | 278 | 0.0 | 0.0 | 0.00 | 0.05 | 0.05 | 99 | 1015.8 |
| 20260905004707 | 80 | 275 | 0.0 | 0.0 | 0.00 | 0.05 | 0.05 | 99 | 1016.0 |
| 20260905004202 | 80 | 275 | 0.0 | 0.0 | 0.00 | 0.05 | 0.05 | 99 | 1015.7 |
| 20260905003657 | 81 | 275 | 0.0 | 0.0 | 0.07 | 0.05 | 0.05 | 99 | 1015.7 |
| 20260905003153 | 81 | 297 | 0.0 | 0.0 | 0.07 | 0.05 | 0.05 | 99 | 1015.9 |
| 20260905002649 | 81 | 297 | 0.0 | 0.0 | 0.07 | 0.05 | 0.05 | 99 | 1015.9 |
| 20260905002148 | 81 | 299 | 0.0 | 0.0 | 0.00 | 0.04 | 0.04 | 99 | 1015.9 |
| 20260905001644 | 81 | 337 | 0.0 | 0.0 | 0.00 | 0.04 | 0.04 | 98 | 1015.6 |
| 20260905001143 | 81 | 343 | 0.0 | 0.0 | 0.00 | 0.04 | 0.04 | 98 | 1016.0 |
| 20260905000638 | 81 | 332 | 0.0 | 0.0 | 0.00 | 0.04 | 0.04 | 96 | 1015.7 |
| 20260905000134 | 82 | 327 | 0.0 | 0.0 | 0.00 | 0.04 | 0.04 | 95 | 1015.7 |
| 20260904235634 | 82 | 155 | 2.0 | 3.0 | 0.17 | 0.04 | 0.04 | 94 | 1015.8 |
| 20260904235133 | 84 | 127 | 3.0 | 3.0 | 0.17 | 0.04 | 0.04 | 91 | 1015.7 |
| 20260904234628 | 85 | 234 | 5.0 | 6.0 | 0.00 | 0.01 | 0.01 | 85 | 1015.9 |
| 20260904234124 | 85 | 212 | 2.0 | 3.0 | 0.00 | 0.01 | 0.01 | 84 | 1015.8 |
| 20260904233620 | 86 | 205 | 5.0 | 7.0 | 0.00 | 0.01 | 0.01 | 84 | 1015.8 |
| 20260904233116 | 88 | 249 | 0.0 | 0.0 | 0.00 | 0.01 | 0.01 | 89 | 1015.5 |
| 20260904232612 | 88 | 249 | 0.0 | 0.0 | 0.00 | 0.01 | 0.01 | 88 | 1015.3 |
| 20260904232108 | 88 | 248 | 0.0 | 0.0 | 0.00 | 0.01 | 0.01 | 87 | 1015.3 |
| 20260904231603 | 89 | 239 | 1.0 | 1.0 | 0.00 | 0.01 | 0.01 | 86 | 1015.2 |
| 20260904231058 | 89 | 277 | 0.0 | 0.0 | 0.00 | 0.01 | 0.01 | 86 | 1015.1 |
| 20260904230557 | 89 | 304 | 0.0 | 0.0 | 0.00 | 0.01 | 0.01 | 85 | 1015.3 |
| 20260904230053 | 89 | 309 | 0.0 | 0.0 | 0.00 | 0.01 | 0.01 | 84 | 1015.2 |
| 20260904225550 | 89 | 310 | 0.0 | 0.0 | 0.00 | 0.01 | 0.01 | 85 | 1015.1 |
| 20260904225045 | 90 | 307 | 0.0 | 0.0 | 0.00 | 0.01 | 0.01 | 84 | 1015.0 |
| 20260904224540 | 89 | 308 | 0.0 | 0.0 | 0.00 | 0.01 | 0.01 | 83 | 1015.1 |
| 20260904224040 | 90 | 302 | 0.0 | 0.0 | 0.00 | 0.01 | 0.01 | 83 | 1014.9 |
| 20260904223539 | 90 | 299 | 0.0 | 0.0 | 0.00 | 0.01 | 0.01 | 82 | 1014.8 |
| 20260904223035 | 90 | 292 | 0.0 | 0.0 | 0.00 | 0.01 | 0.01 | 81 | 1014.7 |
| 20260904222530 | 90 | 298 | 0.0 | 0.0 | 0.00 | 0.01 | 0.01 | 82 | 1014.9 |
| 20260904222026 | 89 | 297 | 0.0 | 0.0 | 0.00 | 0.01 | 0.01 | 82 | 1014.7 |
| 20260904221520 | 89 | 272 | 0.0 | 0.0 | 0.00 | 0.01 | 0.01 | 81 | 1014.8 |
| 20260904221015 | 90 | 211 | 0.0 | 1.0 | 0.00 | 0.01 | 0.01 | 80 | 1014.6 |
| 20260904220515 | 90 | 260 | 1.0 | 1.0 | 0.00 | 0.01 | 0.01 | 81 | 1014.7 |
| 20260904220011 | 91 | 264 | 1.0 | 1.0 | 0.00 | 0.01 | 0.01 | 80 | 1014.3 |
| 20260904215505 | 91 | 113 | 7.0 | 8.0 | 0.00 | 0.01 | 0.01 | 80 | 1014.3 |
| 20260904215001 | 91 | 92 | 3.0 | 8.0 | 0.00 | 0.01 | 0.01 | 79 | 1014.5 |
| 20260904214456 | 91 | 151 | 2.0 | 5.0 | 0.00 | 0.01 | 0.01 | 80 | 1014.6 |
| 20260904213950 | 91 | 112 | 1.0 | 1.0 | 0.00 | 0.01 | 0.01 | 80 | 1014.4 |
| 20260904213449 | 91 | 136 | 1.0 | 2.0 | 0.00 | 0.01 | 0.01 | 80 | 1014.7 |
| 20260904212946 | 92 | 147 | 5.0 | 8.0 | 0.00 | 0.01 | 0.01 | 79 | 1014.3 |
| 20260904212445 | 92 | 151 | 2.0 | 3.0 | 0.00 | 0.01 | 0.01 | 79 | 1014.9 |
| 20260904211940 | 92 | 205 | 4.0 | 5.0 | 0.00 | 0.01 | 0.01 | 78 | 1014.8 |
| 20260904211440 | 92 | 157 | 2.0 | 3.0 | 0.00 | 0.01 | 0.01 | 78 | 1014.7 |
| 20260904210937 | 93 | 198 | 3.0 | 5.0 | 0.00 | 0.01 | 0.01 | 78 | 1014.8 |
| 20260904210435 | 93 | 82 | 6.0 | 7.0 | 0.00 | 0.01 | 0.01 | 76 | 1015.1 |
| 20260904205931 | 93 | 104 | 8.0 | 9.0 | 0.00 | 0.01 | 0.01 | 73 | 1015.0 |
| 20260904205426 | 94 | 95 | 6.0 | 7.0 | 0.00 | 0.01 | 0.01 | 73 | 1014.9 |
| 20260904204924 | 95 | 97 | 6.0 | 9.0 | 0.00 | 0.01 | 0.01 | 72 | 1015.0 |
| 20260904204419 | 96 | 107 | 3.0 | 7.0 | 0.00 | 0.01 | 0.01 | 71 | 1014.6 |
| 20260904203915 | 96 | 129 | 2.0 | 3.0 | 0.00 | 0.01 | 0.01 | 71 | 1014.6 |
| 20260904203412 | 95 | 195 | 4.0 | 7.0 | 0.00 | 0.01 | 0.01 | 71 | 1015.0 |
| 20260904202906 | 96 | 127 | 5.0 | 8.0 | 0.00 | 0.01 | 0.01 | 71 | 1014.9 |
| 20260904202403 | 95 | 106 | 5.0 | 5.0 | 0.00 | 0.01 | 0.01 | 70 | 1014.8 |
| 20260904201858 | 96 | 206 | 6.0 | 7.0 | 0.00 | 0.01 | 0.01 | 70 | 1014.8 |
| 20260904201354 | 96 | 144 | 4.0 | 5.0 | 0.00 | 0.01 | 0.01 | 69 | 1014.6 |
| 20260904200849 | 96 | 154 | 8.0 | 10.0 | 0.00 | 0.01 | 0.01 | 69 | 1014.9 |
| 20260904200347 | 95 | 148 | 4.0 | 5.0 | 0.00 | 0.01 | 0.01 | 71 | 1014.8 |
| 20260904195842 | 96 | 201 | 3.0 | 5.0 | 0.00 | 0.01 | 0.01 | 72 | 1014.8 |
| 20260904195340 | 94 | 214 | 6.0 | 9.0 | 0.00 | 0.01 | 0.01 | 72 | 1015.1 |
| 20260904194835 | 95 | 73 | 9.0 | 11.0 | 0.00 | 0.01 | 0.01 | 71 | 1015.2 |
| 20260904194335 | 97 | 166 | 5.0 | 7.0 | 0.00 | 0.01 | 0.01 | 70 | 1014.9 |
| 20260904193830 | 97 | 178 | 3.0 | 6.0 | 0.00 | 0.01 | 0.01 | 68 | 1015.1 |
| 20260904193325 | 96 | 116 | 4.0 | 5.0 | 0.00 | 0.01 | 0.01 | 71 | 1015.4 |
| 20260904192820 | 97 | 208 | 6.0 | 8.0 | 0.00 | 0.01 | 0.01 | 69 | 1015.4 |
| 20260904192316 | 96 | 110 | 10.0 | 15.0 | 0.00 | 0.01 | 0.01 | 69 | 1015.7 |
| 20260904191813 | 96 | 216 | 4.0 | 6.0 | 0.00 | 0.01 | 0.01 | 71 | 1015.6 |
| 20260904191309 | 96 | 202 | 4.0 | 6.0 | 0.00 | 0.01 | 0.01 | 72 | 1015.7 |
| 20260904190805 | 95 | 138 | 5.0 | 6.0 | 0.00 | 0.01 | 0.01 | 74 | 1015.3 |
| 20260904190300 | 95 | 143 | 5.0 | 7.0 | 0.00 | 0.01 | 0.01 | 76 | 1015.7 |
| 20260904185756 | 95 | 209 | 3.0 | 5.0 | 0.00 | 0.01 | 0.01 | 75 | 1015.7 |
| 20260904185252 | 99 | 109 | 3.0 | 5.0 | 0.00 | 0.01 | 0.01 | 67 | 1015.5 |
| 20260904184751 | 99 | 139 | 5.0 | 6.0 | 0.00 | 0.01 | 0.01 | 59 | 1015.6 |